createdAt,value
2023-04-19T00:00:57.087Z,9.63
2023-04-19T00:01:57.187Z,9.70
2023-04-19T00:02:57.202Z,9.68
2023-04-19T00:03:57.208Z,9.73
2023-04-19T00:04:57.141Z,9.81
2023-04-19T00:05:57.035Z,9.89
2023-04-19T00:06:57.047Z,9.87
2023-04-19T00:07:57.005Z,9.89
2023-04-19T00:08:57.026Z,9.86
2023-04-19T00:10:03.001Z,9.81
2023-04-19T00:10:56.992Z,9.86
2023-04-19T00:11:56.963Z,9.79
2023-04-19T00:12:56.959Z,9.71
2023-04-19T00:13:56.941Z,9.71
2023-04-19T00:14:56.961Z,9.68
2023-04-19T00:16:02.924Z,9.68
2023-04-19T00:16:56.962Z,9.67
2023-04-19T00:17:56.930Z,9.63
2023-04-19T00:18:56.896Z,9.68
2023-04-19T00:19:56.888Z,9.67
2023-04-19T00:20:56.876Z,9.71
2023-04-19T00:21:56.857Z,9.75
2023-04-19T00:22:56.860Z,9.81
2023-04-19T00:23:56.831Z,9.83
2023-04-19T00:24:56.837Z,9.83
2023-04-19T00:25:57.034Z,9.81
2023-04-19T00:26:56.819Z,9.74
2023-04-19T00:27:56.809Z,9.68
2023-04-19T00:28:56.790Z,9.64
2023-04-19T00:29:56.770Z,9.55
2023-04-19T00:30:57.046Z,9.56
2023-04-19T00:31:56.758Z,9.56
2023-04-19T00:32:56.774Z,9.68
2023-04-19T00:33:56.941Z,9.71
2023-04-19T00:34:56.729Z,9.73
2023-04-19T00:35:56.715Z,9.75
2023-04-19T00:36:56.819Z,9.74
2023-04-19T00:37:56.698Z,9.75
2023-04-19T00:38:56.683Z,9.75
2023-04-19T00:39:56.692Z,9.79
2023-04-19T00:40:56.671Z,9.79
2023-04-19T00:41:56.660Z,9.81
2023-04-19T00:42:56.639Z,9.81
2023-04-19T00:43:56.626Z,9.86
2023-04-19T00:44:56.624Z,9.86
2023-04-19T00:45:56.642Z,9.90
2023-04-19T00:46:56.673Z,9.90
2023-04-19T00:47:56.715Z,9.91
2023-04-19T00:48:56.583Z,10.01
2023-04-19T00:49:56.567Z,9.94
2023-04-19T00:50:56.563Z,9.96
2023-04-19T00:51:56.542Z,9.93
2023-04-19T00:52:56.562Z,9.99
2023-04-19T00:53:56.518Z,9.96
2023-04-19T00:55:02.572Z,9.91
2023-04-19T00:55:56.495Z,9.89
2023-04-19T00:56:56.494Z,9.87
2023-04-19T00:57:56.471Z,9.91
2023-04-19T00:58:56.473Z,9.84
2023-04-19T00:59:56.454Z,9.91
2023-04-19T01:00:56.453Z,9.99
2023-04-19T01:01:56.574Z,10.01
2023-04-19T01:02:56.575Z,10.04
2023-04-19T01:03:56.512Z,10.05
2023-04-19T01:04:56.406Z,10.04
2023-04-19T01:05:56.408Z,9.99
2023-04-19T01:06:56.397Z,10.01
2023-04-19T01:07:56.375Z,10.01
2023-04-19T01:08:56.364Z,9.93
2023-04-19T01:09:56.346Z,9.89
2023-04-19T01:10:56.346Z,9.86
2023-04-19T01:11:56.322Z,9.84
2023-04-19T01:12:56.329Z,9.84
2023-04-19T01:13:56.307Z,9.77
2023-04-19T01:14:56.293Z,9.83
2023-04-19T01:15:56.325Z,9.81
2023-04-19T01:16:56.278Z,9.83
2023-04-19T01:17:56.342Z,9.81
2023-04-19T01:18:56.297Z,9.84
2023-04-19T01:19:56.247Z,9.84
2023-04-19T01:20:56.237Z,9.81
2023-04-19T01:22:02.426Z,9.75
2023-04-19T01:22:56.213Z,9.70
2023-04-19T01:23:56.192Z,9.64
2023-04-19T01:24:56.197Z,9.57
2023-04-19T01:25:56.171Z,9.57
2023-04-19T01:26:56.170Z,9.52
2023-04-19T01:27:56.159Z,9.53
2023-04-19T01:28:56.153Z,9.55
2023-04-19T01:29:56.338Z,9.57
2023-04-19T01:30:56.182Z,9.55
2023-04-19T01:31:56.111Z,9.55
2023-04-19T01:32:56.143Z,9.57
2023-04-19T01:33:56.098Z,9.67
2023-04-19T01:34:56.107Z,9.71
2023-04-19T01:35:56.085Z,9.73
2023-04-19T01:36:56.064Z,9.68
2023-04-19T01:37:56.058Z,9.63
2023-04-19T01:38:56.041Z,9.59
2023-04-19T01:39:56.022Z,9.57
2023-04-19T01:40:56.015Z,9.52
2023-04-19T01:41:56.000Z,9.47
2023-04-19T01:42:56.007Z,9.38
2023-04-19T01:43:55.980Z,9.42
2023-04-19T01:44:55.980Z,9.42
2023-04-19T01:45:55.961Z,9.55
2023-04-19T01:46:55.977Z,9.56
2023-04-19T01:47:55.983Z,9.47
2023-04-19T01:48:55.931Z,9.42
2023-04-19T01:50:01.963Z,9.41
2023-04-19T01:50:55.914Z,9.41
2023-04-19T01:51:55.904Z,9.35
2023-04-19T01:52:55.897Z,9.28
2023-04-19T01:53:55.886Z,9.19
2023-04-19T01:54:55.862Z,9.10
2023-04-19T01:55:55.868Z,9.12
2023-04-19T01:56:55.841Z,9.14
2023-04-19T01:57:56.042Z,9.12
2023-04-19T01:58:57.886Z,9.07
2023-04-19T01:59:55.808Z,8.96
2023-04-19T02:00:55.862Z,8.95
2023-04-19T02:02:02.099Z,8.89
2023-04-19T02:02:55.939Z,8.92
2023-04-19T02:04:02.085Z,8.92
2023-04-19T02:04:55.772Z,8.94
2023-04-19T02:05:55.771Z,8.99
2023-04-19T02:06:55.787Z,8.99
2023-04-19T02:07:55.727Z,9.09
2023-04-19T02:08:55.721Z,9.12
2023-04-19T02:09:55.703Z,9.13
2023-04-19T02:10:55.700Z,9.16
2023-04-19T02:11:55.690Z,9.16
2023-04-19T02:12:55.884Z,9.14
2023-04-19T02:13:55.675Z,9.22
2023-04-19T02:14:55.668Z,9.17
2023-04-19T02:15:57.717Z,9.13
2023-04-19T02:16:55.728Z,9.25
2023-04-19T02:17:55.669Z,9.23
2023-04-19T02:18:55.609Z,9.27
2023-04-19T02:19:55.608Z,9.30
2023-04-19T02:20:55.594Z,9.37
2023-04-19T02:21:55.613Z,9.32
2023-04-19T02:22:55.569Z,9.25
2023-04-19T02:23:55.560Z,9.23
2023-04-19T02:24:55.547Z,9.22
2023-04-19T02:25:55.541Z,9.19
2023-04-19T02:26:55.519Z,9.10
2023-04-19T02:27:55.521Z,9.14
2023-04-19T02:28:55.511Z,9.16
2023-04-19T02:29:55.497Z,9.20
2023-04-19T02:30:55.486Z,9.20
2023-04-19T02:31:55.516Z,9.12
2023-04-19T02:32:55.485Z,9.09
2023-04-19T02:33:55.483Z,8.99
2023-04-19T02:34:55.467Z,8.92
2023-04-19T02:35:55.435Z,8.89
2023-04-19T02:36:55.414Z,8.91
2023-04-19T02:37:55.440Z,8.91
2023-04-19T02:38:55.395Z,8.86
2023-04-19T02:39:55.387Z,8.87
2023-04-19T02:40:55.371Z,8.95
2023-04-19T02:41:55.367Z,9.04
2023-04-19T02:42:55.350Z,9.13
2023-04-19T02:43:55.349Z,9.19
2023-04-19T02:44:55.338Z,9.22
2023-04-19T02:45:55.551Z,9.20
2023-04-19T02:46:55.513Z,9.22
2023-04-19T02:47:55.439Z,9.17
2023-04-19T02:48:55.287Z,9.12
2023-04-19T02:49:55.280Z,9.09
2023-04-19T02:50:55.469Z,9.07
2023-04-19T02:51:55.256Z,9.07
2023-04-19T02:52:55.447Z,8.99
2023-04-19T02:53:55.272Z,8.94
2023-04-19T02:54:55.233Z,8.89
2023-04-19T02:55:55.224Z,8.89
2023-04-19T02:56:55.404Z,8.84
2023-04-19T02:57:55.198Z,8.84
2023-04-19T02:58:55.189Z,8.79
2023-04-19T03:00:01.189Z,8.79
2023-04-19T03:00:55.185Z,8.74
2023-04-19T03:01:55.194Z,8.68
2023-04-19T03:02:55.306Z,8.59
2023-04-19T03:03:55.226Z,8.59
2023-04-19T03:04:55.114Z,8.53
2023-04-19T03:05:55.112Z,8.53
2023-04-19T03:06:55.098Z,8.45
2023-04-19T03:07:55.089Z,8.43
2023-04-19T03:08:55.067Z,8.47
2023-04-19T03:09:55.089Z,8.44
2023-04-19T03:10:55.049Z,8.37
2023-04-19T03:12:01.061Z,8.41
2023-04-19T03:12:55.030Z,8.44
2023-04-19T03:13:55.023Z,8.43
2023-04-19T03:14:55.006Z,8.41
2023-04-19T03:15:55.017Z,8.44
2023-04-19T03:16:54.984Z,8.44
2023-04-19T03:17:55.039Z,8.47
2023-04-19T03:18:54.963Z,8.48
2023-04-19T03:19:54.962Z,8.52
2023-04-19T03:20:54.936Z,8.55
2023-04-19T03:21:54.938Z,8.52
2023-04-19T03:22:55.017Z,8.53
2023-04-19T03:23:54.911Z,8.48
2023-04-19T03:24:55.104Z,8.43
2023-04-19T03:25:54.933Z,8.41
2023-04-19T03:26:54.875Z,8.35
2023-04-19T03:27:54.966Z,8.32
2023-04-19T03:28:55.067Z,8.27
2023-04-19T03:29:54.842Z,8.28
2023-04-19T03:30:54.856Z,8.22
2023-04-19T03:32:01.056Z,8.21
2023-04-19T03:32:54.865Z,8.22
2023-04-19T03:34:00.809Z,8.27
2023-04-19T03:34:54.785Z,8.32
2023-04-19T03:35:54.778Z,8.43
2023-04-19T03:36:54.772Z,8.68
2023-04-19T03:37:54.752Z,8.94
2023-04-19T03:38:54.742Z,9.17
2023-04-19T03:39:54.742Z,9.34
2023-04-19T03:40:54.714Z,9.55
2023-04-19T03:41:54.745Z,9.67
2023-04-19T03:42:54.697Z,9.81
2023-04-19T03:44:00.703Z,9.89
2023-04-19T03:44:54.674Z,9.96
2023-04-19T03:45:54.685Z,10.02
2023-04-19T03:47:00.659Z,10.05
2023-04-19T03:47:54.676Z,10.07
2023-04-19T03:48:54.638Z,10.04
2023-04-19T03:49:54.627Z,10.05
2023-04-19T03:50:54.606Z,10.04
2023-04-19T03:51:54.610Z,10.04
2023-04-19T03:52:54.595Z,10.08
2023-04-19T03:53:54.588Z,10.11
2023-04-19T03:54:54.567Z,10.15
2023-04-19T03:55:54.558Z,10.12
2023-04-19T03:56:54.545Z,10.12
2023-04-19T03:57:54.585Z,10.09
2023-04-19T03:58:54.533Z,10.08
2023-04-19T03:59:54.524Z,10.12
2023-04-19T04:00:54.502Z,10.08
2023-04-19T04:01:55.752Z,10.11
2023-04-19T04:02:54.770Z,10.08
2023-04-19T04:03:54.758Z,10.09
2023-04-19T04:04:54.552Z,10.09
2023-04-19T04:05:54.411Z,10.14
2023-04-19T04:06:54.401Z,10.15
2023-04-19T04:07:54.437Z,10.14
2023-04-19T04:08:54.418Z,10.14
2023-04-19T04:09:54.381Z,10.12
2023-04-19T04:10:54.365Z,10.15
2023-04-19T04:11:54.400Z,10.14
2023-04-19T04:12:54.335Z,10.15
2023-04-19T04:13:54.343Z,10.22
2023-04-19T04:14:54.304Z,10.27
2023-04-19T04:15:54.326Z,10.26
2023-04-19T04:16:54.275Z,10.29
2023-04-19T04:17:54.325Z,10.30
2023-04-19T04:18:54.264Z,10.26
2023-04-19T04:19:54.259Z,10.23
2023-04-19T04:20:54.227Z,10.22
2023-04-19T04:21:54.233Z,10.20
2023-04-19T04:22:54.208Z,10.15
2023-04-19T04:23:54.206Z,10.14
2023-04-19T04:24:54.198Z,10.07
2023-04-19T04:25:54.191Z,10.08
2023-04-19T04:26:54.168Z,10.04
2023-04-19T04:28:00.215Z,10.02
2023-04-19T04:28:54.146Z,9.96
2023-04-19T04:29:54.184Z,10.05
2023-04-19T04:30:54.134Z,10.05
2023-04-19T04:31:54.241Z,10.04
2023-04-19T04:32:54.148Z,10.02
2023-04-19T04:33:54.113Z,9.97
2023-04-19T04:34:54.103Z,9.99
2023-04-19T04:35:54.093Z,10.02
2023-04-19T04:36:54.082Z,10.02
2023-04-19T04:37:54.065Z,9.97
2023-04-19T04:38:54.057Z,10.04
2023-04-19T04:39:54.274Z,10.01
2023-04-19T04:40:54.031Z,9.99
2023-04-19T04:41:54.039Z,9.91
2023-04-19T04:42:54.261Z,9.89
2023-04-19T04:44:08.296Z,9.87
2023-04-19T04:45:01.073Z,9.86
2023-04-19T04:46:28.699Z,9.81
2023-04-19T04:47:28.676Z,9.81
2023-04-19T04:48:28.680Z,9.75
2023-04-19T04:49:28.665Z,9.79
2023-04-19T04:50:28.642Z,9.83
2023-04-19T04:51:28.640Z,9.77
2023-04-19T04:52:28.625Z,9.81
2023-04-19T04:53:28.614Z,9.81
2023-04-19T04:54:28.801Z,9.77
2023-04-19T04:55:28.611Z,9.79
2023-04-19T04:56:28.659Z,9.83
2023-04-19T04:57:34.580Z,9.84
2023-04-19T04:58:28.568Z,9.83
2023-04-19T04:59:28.562Z,9.79
2023-04-19T05:00:28.555Z,9.75
2023-04-19T05:01:28.555Z,9.73
2023-04-19T05:02:28.594Z,9.65
2023-04-19T05:03:28.552Z,9.67
2023-04-19T05:04:28.545Z,9.64
2023-04-19T05:05:28.489Z,9.63
2023-04-19T05:06:28.492Z,9.57
2023-04-19T05:07:28.475Z,9.56
2023-04-19T05:08:28.446Z,9.52
2023-04-19T05:09:28.459Z,9.45
2023-04-19T05:10:28.443Z,9.46
2023-04-19T05:11:28.637Z,9.41
2023-04-19T05:12:28.614Z,9.41
2023-04-19T05:13:28.403Z,9.39
2023-04-19T05:14:28.386Z,9.39
2023-04-19T05:15:28.382Z,9.39
2023-04-19T05:16:28.389Z,9.37
2023-04-19T05:17:28.381Z,9.34
2023-04-19T05:18:28.344Z,9.37
2023-04-19T05:19:28.338Z,9.38
2023-04-19T05:20:28.338Z,9.39
2023-04-19T05:21:28.533Z,9.42
2023-04-19T05:22:28.298Z,9.52
2023-04-19T05:23:28.320Z,9.59
2023-04-19T05:24:28.287Z,9.68
2023-04-19T05:25:28.378Z,9.74
2023-04-19T05:26:28.281Z,9.83
2023-04-19T05:27:28.448Z,9.89
2023-04-19T05:28:28.244Z,9.94
2023-04-19T05:29:34.256Z,10.02
2023-04-19T05:30:28.626Z,10.09
2023-04-19T05:31:34.470Z,10.12
2023-04-19T05:32:28.356Z,10.17
2023-04-19T05:33:28.191Z,10.25
2023-04-19T05:34:28.183Z,10.27
2023-04-19T05:35:28.168Z,10.32
2023-04-19T05:36:28.168Z,10.38
2023-04-19T05:37:28.143Z,10.33
2023-04-19T05:38:28.142Z,10.45
2023-04-19T05:39:28.134Z,10.50
2023-04-19T05:40:34.121Z,10.59
2023-04-19T05:41:28.130Z,10.63
2023-04-19T05:42:28.104Z,10.72
2023-04-19T05:43:28.085Z,10.75
2023-04-19T05:44:28.074Z,10.72
2023-04-19T05:45:28.060Z,10.73
2023-04-19T05:46:28.080Z,10.83
2023-04-19T05:47:28.089Z,10.85
2023-04-19T05:48:28.035Z,10.85
2023-04-19T05:49:28.012Z,10.87
2023-04-19T05:50:28.019Z,10.87
2023-04-19T05:51:28.017Z,10.98
2023-04-19T05:52:27.994Z,11.08
2023-04-19T05:53:27.974Z,11.10
2023-04-19T05:54:33.994Z,11.16
2023-04-19T05:55:27.976Z,11.22
2023-04-19T05:56:27.951Z,11.24
2023-04-19T05:57:27.928Z,11.22
2023-04-19T05:58:28.019Z,11.29
2023-04-19T05:59:27.910Z,11.28
2023-04-19T06:00:27.912Z,11.29
2023-04-19T06:01:27.903Z,11.40
2023-04-19T06:02:27.997Z,11.43
2023-04-19T06:03:34.052Z,11.49
2023-04-19T06:04:28.145Z,11.55
2023-04-19T06:05:27.849Z,11.57
2023-04-19T06:06:28.208Z,11.67
2023-04-19T06:07:33.078Z,11.67
2023-04-19T06:08:28.865Z,11.60
2023-04-19T06:09:27.802Z,11.61
2023-04-19T06:10:36.785Z,11.70
2023-04-19T06:11:38.825Z,11.78
2023-04-19T06:12:28.805Z,11.91
2023-04-19T06:13:27.760Z,11.94
2023-04-19T06:14:27.957Z,11.94
2023-04-19T06:15:27.737Z,11.94
2023-04-19T06:16:27.969Z,11.97
2023-04-19T06:17:27.770Z,12.00
2023-04-19T06:18:27.706Z,11.97
2023-04-19T06:19:27.723Z,11.94
2023-04-19T06:20:27.693Z,11.94
2023-04-19T06:21:27.671Z,12.15
2023-04-19T06:22:27.668Z,12.26
2023-04-19T06:23:27.647Z,12.30
2023-04-19T06:24:27.645Z,12.33
2023-04-19T06:25:27.630Z,12.27
2023-04-19T06:26:27.629Z,12.13
2023-04-19T06:27:27.621Z,12.08
2023-04-19T06:28:27.607Z,12.06
2023-04-19T06:29:27.582Z,11.98
2023-04-19T06:30:27.589Z,11.97
2023-04-19T06:31:27.620Z,11.93
2023-04-19T06:32:27.593Z,11.95
2023-04-19T06:33:27.546Z,11.98
2023-04-19T06:34:27.540Z,12.06
2023-04-19T06:35:27.663Z,12.12
2023-04-19T06:36:27.540Z,12.15
2023-04-19T06:37:27.492Z,12.19
2023-04-19T06:38:27.493Z,12.23
2023-04-19T06:39:27.488Z,12.33
2023-04-19T06:40:27.469Z,12.38
2023-04-19T06:41:27.461Z,12.48
2023-04-19T06:42:27.486Z,12.49
2023-04-19T06:43:27.436Z,12.55
2023-04-19T06:44:27.429Z,12.64
2023-04-19T06:45:27.408Z,12.59
2023-04-19T06:46:27.468Z,12.72
2023-04-19T06:47:27.391Z,12.74
2023-04-19T06:48:27.389Z,12.78
2023-04-19T06:49:27.368Z,12.87
2023-04-19T06:50:27.367Z,12.89
2023-04-19T06:51:27.369Z,12.89
2023-04-19T06:52:27.341Z,12.95
2023-04-19T06:53:27.331Z,12.89
2023-04-19T06:54:27.317Z,12.89
2023-04-19T06:55:27.305Z,12.89
2023-04-19T06:56:27.299Z,13.00
2023-04-19T06:57:27.290Z,13.04
2023-04-19T06:58:27.294Z,13.00
2023-04-19T06:59:27.258Z,13.03
2023-04-19T07:00:27.268Z,13.08
2023-04-19T07:01:27.302Z,13.26
2023-04-19T07:02:27.317Z,13.28
2023-04-19T07:03:27.407Z,13.47
2023-04-19T07:04:27.302Z,13.66
2023-04-19T07:05:33.205Z,13.70
2023-04-19T07:06:27.196Z,13.76
2023-04-19T07:07:27.225Z,14.03
2023-04-19T07:08:34.788Z,14.21
2023-04-19T07:09:28.201Z,14.36
2023-04-19T07:10:27.174Z,14.58
2023-04-19T07:11:33.134Z,14.72
2023-04-19T07:12:27.137Z,14.65
2023-04-19T07:13:27.308Z,14.46
2023-04-19T07:14:27.109Z,14.45
2023-04-19T07:15:27.087Z,14.46
2023-04-19T07:16:27.180Z,14.58
2023-04-19T07:17:27.112Z,14.40
2023-04-19T07:18:27.312Z,14.55
2023-04-19T07:19:27.044Z,14.55
2023-04-19T07:20:27.066Z,14.37
2023-04-19T07:21:27.029Z,14.40
2023-04-19T07:22:27.022Z,14.28
2023-04-19T07:23:27.050Z,14.29
2023-04-19T07:24:26.993Z,14.21
2023-04-19T07:25:27.176Z,13.88
2023-04-19T07:26:26.977Z,13.91
2023-04-19T07:27:26.963Z,14.10
2023-04-19T07:28:26.951Z,13.98
2023-04-19T07:29:26.937Z,13.88
2023-04-19T07:30:27.153Z,13.77
2023-04-19T07:31:26.969Z,13.80
2023-04-19T07:32:27.007Z,13.66
2023-04-19T07:33:28.285Z,13.76
2023-04-19T07:34:32.890Z,13.81
2023-04-19T07:35:26.876Z,13.84
2023-04-19T07:36:26.864Z,13.83
2023-04-19T07:37:26.844Z,13.77
2023-04-19T07:38:26.844Z,13.77
2023-04-19T07:39:26.997Z,13.65
2023-04-19T07:40:26.895Z,13.65
2023-04-19T07:41:26.810Z,13.69
2023-04-19T07:42:26.804Z,13.69
2023-04-19T07:43:26.793Z,13.69
2023-04-19T07:44:26.781Z,13.63
2023-04-19T07:45:26.760Z,13.72
2023-04-19T07:46:26.824Z,13.86
2023-04-19T07:47:32.766Z,13.90
2023-04-19T07:48:26.731Z,13.96
2023-04-19T07:49:26.724Z,14.10
2023-04-19T07:50:26.728Z,14.21
2023-04-19T07:51:26.906Z,14.36
2023-04-19T07:52:26.901Z,14.57
2023-04-19T07:53:26.679Z,14.54
2023-04-19T07:54:26.673Z,14.51
2023-04-19T07:55:26.772Z,14.54
2023-04-19T07:56:26.655Z,14.75
2023-04-19T07:57:26.668Z,14.80
2023-04-19T07:58:26.629Z,14.79
2023-04-19T07:59:26.616Z,14.82
2023-04-19T08:00:26.686Z,14.83
2023-04-19T08:01:26.623Z,14.80
2023-04-19T08:02:26.768Z,14.68
2023-04-19T08:03:26.751Z,14.72
2023-04-19T08:04:27.319Z,14.95
2023-04-19T08:05:26.834Z,15.18
2023-04-19T08:06:26.536Z,15.37
2023-04-19T08:07:26.531Z,15.35
2023-04-19T08:08:26.541Z,15.05
2023-04-19T08:09:26.535Z,14.94
2023-04-19T08:10:26.576Z,15.08
2023-04-19T08:11:26.518Z,14.98
2023-04-19T08:12:36.465Z,15.12
2023-04-19T08:13:27.496Z,15.13
2023-04-19T08:14:37.268Z,15.28
2023-04-19T08:15:52.530Z,15.26
2023-04-19T08:17:06.459Z,15.33
2023-04-19T08:17:32.591Z,15.37
2023-04-19T08:18:27.508Z,15.40
2023-04-19T08:19:26.389Z,15.53
2023-04-19T08:20:26.400Z,15.69
2023-04-19T08:21:34.628Z,15.57
2023-04-19T08:22:27.410Z,15.54
2023-04-19T08:23:32.042Z,15.64
2023-04-19T08:24:27.386Z,15.65
2023-04-19T08:25:26.329Z,15.75
2023-04-19T08:26:26.323Z,16.01
2023-04-19T08:27:26.490Z,16.00
2023-04-19T08:28:26.307Z,16.37
2023-04-19T08:29:26.300Z,16.33
2023-04-19T08:30:26.291Z,16.24
2023-04-19T08:31:26.281Z,16.14
2023-04-19T08:32:26.331Z,15.97
2023-04-19T08:33:26.245Z,15.97
2023-04-19T08:34:26.644Z,16.23
2023-04-19T08:35:26.228Z,16.30
2023-04-19T08:36:37.221Z,16.30
2023-04-19T08:37:27.244Z,16.30
2023-04-19T08:38:26.202Z,16.32
2023-04-19T08:39:33.019Z,16.37
2023-04-19T08:40:27.215Z,16.42
2023-04-19T08:41:26.165Z,16.34
2023-04-19T08:42:35.562Z,16.22
2023-04-19T08:43:26.172Z,16.19
2023-04-19T08:44:35.781Z,16.17
2023-04-19T08:45:35.567Z,16.24
2023-04-19T08:46:27.241Z,16.26
2023-04-19T08:47:32.322Z,16.15
2023-04-19T08:48:27.273Z,16.14
2023-04-19T08:49:26.079Z,16.12
2023-04-19T08:50:33.303Z,16.09
2023-04-19T08:51:27.295Z,16.15
2023-04-19T08:52:26.052Z,16.32
2023-04-19T08:54:00.739Z,16.37
2023-04-19T08:55:00.730Z,16.40
2023-04-19T08:57:00.693Z,16.56
2023-04-19T08:58:00.678Z,16.45
2023-04-19T08:59:11.471Z,16.47
2023-04-19T09:00:01.753Z,16.44
2023-04-19T09:01:00.718Z,16.33
2023-04-19T09:02:00.731Z,16.38
2023-04-19T09:03:00.837Z,16.55
2023-04-19T09:04:16.041Z,16.67
2023-04-19T09:05:00.828Z,16.70
2023-04-19T09:06:00.644Z,16.75
2023-04-19T09:07:00.596Z,16.67
2023-04-19T09:08:00.588Z,16.70
2023-04-19T09:09:00.585Z,16.69
2023-04-19T09:10:03.756Z,16.67
2023-04-19T09:11:00.549Z,16.60
2023-04-19T09:12:00.569Z,16.57
2023-04-19T09:13:06.730Z,16.48
2023-04-19T09:14:00.516Z,16.32
2023-04-19T09:15:02.518Z,16.17
2023-04-19T09:16:00.557Z,16.15
2023-04-19T09:17:00.489Z,16.20
2023-04-19T09:18:00.485Z,16.30
2023-04-19T09:19:11.786Z,16.29
2023-04-19T09:20:01.506Z,16.33
2023-04-19T09:21:00.444Z,16.65
2023-04-19T09:22:00.424Z,16.85
2023-04-19T09:23:00.419Z,16.74
2023-04-19T09:24:02.326Z,16.74
2023-04-19T09:26:22.209Z,16.88
2023-04-19T09:27:01.418Z,16.84
2023-04-19T09:28:00.356Z,16.85
2023-04-19T09:29:00.360Z,16.84
2023-04-19T09:30:00.391Z,16.78
2023-04-19T09:31:10.691Z,16.88
2023-04-19T09:32:01.425Z,16.94
2023-04-19T09:33:00.417Z,16.80
2023-04-19T09:34:00.308Z,16.77
2023-04-19T09:35:00.309Z,17.01
2023-04-19T09:36:00.290Z,17.14
2023-04-19T09:37:09.070Z,17.26
2023-04-19T09:38:05.467Z,17.23
2023-04-19T09:39:00.243Z,17.46
2023-04-19T09:40:00.252Z,17.74
2023-04-19T09:41:00.222Z,18.01
2023-04-19T09:42:00.222Z,17.94
2023-04-19T09:43:12.900Z,18.20
2023-04-19T09:44:18.744Z,18.14
2023-04-19T09:45:28.391Z,18.22
2023-04-19T09:46:01.365Z,18.55
2023-04-19T09:47:00.322Z,19.17
2023-04-19T09:48:00.187Z,19.31
2023-04-19T09:49:01.979Z,19.77
2023-04-19T09:50:00.740Z,19.67
2023-04-19T09:51:09.828Z,19.67
2023-04-19T09:52:00.111Z,19.99
2023-04-19T09:53:00.149Z,20.54
2023-04-19T09:54:00.103Z,20.51
2023-04-19T09:55:00.429Z,20.43
2023-04-19T09:56:02.042Z,20.46
2023-04-19T09:57:01.482Z,20.79
2023-04-19T09:58:00.053Z,21.47
2023-04-19T09:59:12.640Z,21.58
2023-04-19T10:00:01.090Z,22.11
2023-04-19T10:01:13.335Z,21.35
2023-04-19T10:02:01.146Z,21.28
2023-04-19T10:03:00.121Z,20.68
2023-04-19T10:04:14.522Z,20.17
2023-04-19T10:05:19.068Z,19.99
2023-04-19T10:06:10.172Z,19.94
2023-04-19T10:07:28.518Z,19.84
2023-04-19T10:08:01.152Z,20.23
2023-04-19T10:08:59.927Z,21.21
2023-04-19T10:10:59.925Z,21.13
2023-04-19T10:12:07.826Z,21.44
2023-04-19T10:13:18.136Z,21.74
2023-04-19T10:14:00.939Z,21.87
2023-04-19T10:14:59.889Z,21.98
2023-04-19T10:16:11.615Z,22.04
2023-04-19T10:17:00.916Z,22.67
2023-04-19T10:17:59.918Z,23.20
2023-04-19T10:18:59.894Z,22.64
2023-04-19T10:19:59.838Z,22.29
2023-04-19T10:20:59.958Z,21.13
2023-04-19T10:22:05.922Z,20.41
2023-04-19T10:22:59.790Z,19.80
2023-04-19T10:23:59.790Z,19.39
2023-04-19T10:24:59.772Z,19.09
2023-04-19T10:25:59.766Z,18.80
2023-04-19T10:27:05.755Z,18.80
2023-04-19T10:27:59.746Z,18.90
2023-04-19T10:28:59.734Z,19.78
2023-04-19T10:29:59.740Z,20.87
2023-04-19T10:30:59.711Z,20.68
2023-04-19T10:31:59.725Z,21.44
2023-04-19T10:32:59.754Z,20.69
2023-04-19T10:33:59.893Z,20.17
2023-04-19T10:34:59.694Z,20.90
2023-04-19T10:35:59.678Z,21.87
2023-04-19T10:36:59.645Z,22.41
2023-04-19T10:38:05.646Z,23.16
2023-04-19T10:38:59.646Z,22.39
2023-04-19T10:39:59.622Z,21.37
2023-04-19T10:40:59.611Z,20.86
2023-04-19T10:41:59.705Z,20.38
2023-04-19T10:42:59.584Z,20.46
2023-04-19T10:43:59.586Z,20.68
2023-04-19T10:44:59.566Z,20.68
2023-04-19T10:45:59.567Z,20.41
2023-04-19T10:47:05.751Z,20.06
2023-04-19T10:47:59.576Z,20.13
2023-04-19T10:48:59.559Z,20.35
2023-04-19T10:49:59.513Z,20.32
2023-04-19T10:50:59.785Z,21.24
2023-04-19T10:52:05.500Z,21.46
2023-04-19T10:52:59.479Z,21.38
2023-04-19T10:53:59.492Z,21.49
2023-04-19T10:54:59.472Z,21.37
2023-04-19T10:55:59.476Z,20.54
2023-04-19T10:56:59.465Z,20.65
2023-04-19T10:57:59.486Z,20.65
2023-04-19T10:58:59.441Z,20.63
2023-04-19T10:59:59.421Z,20.60
2023-04-19T11:00:59.414Z,20.81
2023-04-19T11:01:59.532Z,20.93
2023-04-19T11:02:59.716Z,20.73
2023-04-19T11:04:01.880Z,20.16
2023-04-19T11:04:59.379Z,20.43
2023-04-19T11:05:59.347Z,21.06
2023-04-19T11:06:59.371Z,21.77
2023-04-19T11:07:59.332Z,21.97
2023-04-19T11:08:59.335Z,22.26
2023-04-19T11:09:59.312Z,22.36
2023-04-19T11:10:59.295Z,22.45
2023-04-19T11:12:05.287Z,22.60
2023-04-19T11:12:59.283Z,22.44
2023-04-19T11:13:59.259Z,22.32
2023-04-19T11:14:59.257Z,22.29
2023-04-19T11:15:59.287Z,23.37
2023-04-19T11:16:59.304Z,23.30
2023-04-19T11:18:12.606Z,22.46
2023-04-19T11:19:00.247Z,21.77
2023-04-19T11:20:01.456Z,21.42
2023-04-19T11:20:59.183Z,20.87
2023-04-19T11:21:59.204Z,20.57
2023-04-19T11:23:05.275Z,19.99
2023-04-19T11:23:59.162Z,19.46
2023-04-19T11:24:59.143Z,18.98
2023-04-19T11:25:59.140Z,18.45
2023-04-19T11:26:59.120Z,18.25
2023-04-19T11:27:59.346Z,18.20
2023-04-19T11:28:59.099Z,18.19
2023-04-19T11:29:59.103Z,18.13
2023-04-19T11:30:59.143Z,18.04
2023-04-19T11:31:59.077Z,17.96
2023-04-19T11:32:59.099Z,17.85
2023-04-19T11:34:05.077Z,17.91
2023-04-19T11:34:59.037Z,17.76
2023-04-19T11:35:59.041Z,17.63
2023-04-19T11:36:59.019Z,17.67
2023-04-19T11:37:59.026Z,17.62
2023-04-19T11:38:59.082Z,17.55
2023-04-19T11:39:59.009Z,17.59
2023-04-19T11:40:58.992Z,17.73
2023-04-19T11:41:58.970Z,17.77
2023-04-19T11:42:58.955Z,17.71
2023-04-19T11:43:58.966Z,17.40
2023-04-19T11:44:58.958Z,17.25
2023-04-19T11:45:58.949Z,17.33
2023-04-19T11:46:59.209Z,17.43
2023-04-19T11:47:59.001Z,17.37
2023-04-19T11:48:58.914Z,17.40
2023-04-19T11:49:58.893Z,17.49
2023-04-19T11:50:58.872Z,17.65
2023-04-19T11:51:58.874Z,17.41
2023-04-19T11:52:58.882Z,17.59
2023-04-19T11:53:58.858Z,17.71
2023-04-19T11:54:58.983Z,17.73
2023-04-19T11:55:58.836Z,17.77
2023-04-19T11:56:58.859Z,17.80
2023-04-19T11:57:58.813Z,17.94
2023-04-19T11:59:04.811Z,18.02
2023-04-19T11:59:58.813Z,18.01
2023-04-19T12:00:58.776Z,17.74
2023-04-19T12:01:58.800Z,17.63
2023-04-19T12:02:58.998Z,17.76
2023-04-19T12:03:58.894Z,17.78
2023-04-19T12:04:58.897Z,17.73
2023-04-19T12:05:58.880Z,17.56
2023-04-19T12:06:58.806Z,17.44
2023-04-19T12:07:58.696Z,17.25
2023-04-19T12:08:58.682Z,17.06
2023-04-19T12:09:58.677Z,16.84
2023-04-19T12:10:58.766Z,16.72
2023-04-19T12:11:58.663Z,16.69
2023-04-19T12:12:58.641Z,16.63
2023-04-19T12:13:58.640Z,16.65
2023-04-19T12:14:58.620Z,16.60
2023-04-19T12:15:58.619Z,16.55
2023-04-19T12:16:58.697Z,16.52
2023-04-19T12:17:58.610Z,16.69
2023-04-19T12:18:58.601Z,16.75
2023-04-19T12:19:58.776Z,16.91
2023-04-19T12:21:00.877Z,17.06
2023-04-19T12:21:58.564Z,17.03
2023-04-19T12:22:58.530Z,16.96
2023-04-19T12:23:58.561Z,16.78
2023-04-19T12:24:58.518Z,16.93
2023-04-19T12:25:58.725Z,17.06
2023-04-19T12:27:04.674Z,17.07
2023-04-19T12:27:58.506Z,17.03
2023-04-19T12:28:58.485Z,16.97
2023-04-19T12:29:58.476Z,16.77
2023-04-19T12:30:58.465Z,16.75
2023-04-19T12:32:04.482Z,16.60
2023-04-19T12:33:04.502Z,16.60
2023-04-19T12:33:58.433Z,16.48
2023-04-19T12:34:58.638Z,16.41
2023-04-19T12:35:58.417Z,16.32
2023-04-19T12:36:58.395Z,16.20
2023-04-19T12:37:58.384Z,16.05
2023-04-19T12:38:58.387Z,16.17
2023-04-19T12:39:58.364Z,16.22
2023-04-19T12:40:58.349Z,16.17
2023-04-19T12:41:58.343Z,16.22
2023-04-19T12:42:58.424Z,16.15
2023-04-19T12:43:58.324Z,16.09
2023-04-19T12:44:58.411Z,16.08
2023-04-19T12:45:58.363Z,16.08
2023-04-19T12:46:58.297Z,16.05
2023-04-19T12:47:58.312Z,16.04
2023-04-19T12:48:58.271Z,16.01
2023-04-19T12:49:58.258Z,15.96
2023-04-19T12:50:58.251Z,16.00
2023-04-19T12:51:58.243Z,15.94
2023-04-19T12:52:58.219Z,15.92
2023-04-19T12:53:58.214Z,15.82
2023-04-19T12:54:58.205Z,15.76
2023-04-19T12:55:58.201Z,15.78
2023-04-19T12:56:58.186Z,15.74
2023-04-19T12:57:58.176Z,15.72
2023-04-19T12:58:58.293Z,15.74
2023-04-19T12:59:58.161Z,15.75
2023-04-19T13:00:58.139Z,15.78
2023-04-19T13:01:58.335Z,15.80
2023-04-19T13:02:58.206Z,15.83
2023-04-19T13:03:59.701Z,15.90
2023-04-19T13:05:04.107Z,16.00
2023-04-19T13:05:58.090Z,16.04